createdAt,value
2022-08-29T00:00:59.442Z,48.60
2022-08-29T00:03:26.778Z,48.70
2022-08-29T00:05:53.579Z,48.90
2022-08-29T00:08:21.710Z,48.90
2022-08-29T00:10:48.783Z,48.90
2022-08-29T00:13:16.319Z,48.90
2022-08-29T00:15:45.034Z,49.00
2022-08-29T00:18:14.075Z,49.10
2022-08-29T00:20:42.128Z,49.10
2022-08-29T00:23:10.029Z,49.30
2022-08-29T00:25:37.779Z,49.30
2022-08-29T00:28:05.323Z,49.40
2022-08-29T00:30:33.013Z,49.50
2022-08-29T00:32:59.819Z,49.70
2022-08-29T00:35:31.323Z,49.60
2022-08-29T00:37:59.259Z,49.90
2022-08-29T00:40:31.021Z,50.20
2022-08-29T00:42:58.482Z,50.30
2022-08-29T00:45:25.868Z,50.40
2022-08-29T00:47:57.323Z,50.50
2022-08-29T00:50:35.906Z,50.40
2022-08-29T00:53:06.603Z,50.40
2022-08-29T00:55:37.774Z,50.30
2022-08-29T00:58:14.344Z,50.40
2022-08-29T01:00:43.324Z,50.40
2022-08-29T01:03:10.327Z,50.50
2022-08-29T01:05:37.550Z,50.60
2022-08-29T01:08:06.141Z,50.80
2022-08-29T01:10:53.980Z,50.70
2022-08-29T01:13:26.025Z,50.60
2022-08-29T01:15:54.924Z,50.80
2022-08-29T01:18:23.233Z,50.80
2022-08-29T01:21:18.805Z,50.80
2022-08-29T01:24:10.415Z,51.00
2022-08-29T01:26:37.448Z,50.90
2022-08-29T01:29:04.806Z,51.00
2022-08-29T01:31:58.165Z,51.00
2022-08-29T01:34:27.579Z,51.00
2022-08-29T01:36:58.218Z,51.10
2022-08-29T01:39:29.134Z,51.70
2022-08-29T01:41:58.121Z,51.20
2022-08-29T01:44:26.286Z,51.30
2022-08-29T01:47:00.423Z,51.20
2022-08-29T01:49:29.529Z,51.40
2022-08-29T01:51:56.400Z,51.40
2022-08-29T01:54:23.753Z,51.40
2022-08-29T01:56:52.746Z,51.40
2022-08-29T01:59:24.339Z,51.60
2022-08-29T02:01:59.644Z,51.70
2022-08-29T02:04:27.362Z,51.80
2022-08-29T02:06:56.199Z,51.70
2022-08-29T02:09:24.812Z,51.60
2022-08-29T02:11:52.671Z,52.00
2022-08-29T02:14:20.018Z,52.10
2022-08-29T02:16:48.105Z,52.40
2022-08-29T02:19:15.533Z,52.30
2022-08-29T02:21:42.917Z,52.40
2022-08-29T02:24:24.511Z,52.40
2022-08-29T02:26:53.559Z,52.50
2022-08-29T02:29:20.404Z,52.50
2022-08-29T02:31:47.891Z,52.70
2022-08-29T02:34:17.587Z,53.10
2022-08-29T02:36:44.803Z,53.10
2022-08-29T02:39:15.094Z,53.80
2022-08-29T02:41:44.347Z,52.90
2022-08-29T02:44:14.363Z,53.20
2022-08-29T02:46:41.261Z,53.20
2022-08-29T02:49:08.110Z,53.10
2022-08-29T02:51:35.584Z,53.50
2022-08-29T02:54:02.846Z,53.30
2022-08-29T02:56:30.444Z,53.50
2022-08-29T02:58:58.227Z,53.40
2022-08-29T03:01:26.160Z,53.30
2022-08-29T03:03:53.711Z,53.10
2022-08-29T03:06:21.686Z,53.20
2022-08-29T03:08:49.218Z,53.50
2022-08-29T03:11:17.316Z,53.40
2022-08-29T03:13:44.568Z,53.70
2022-08-29T03:16:12.911Z,53.60
2022-08-29T03:18:39.991Z,53.60
2022-08-29T03:21:18.088Z,53.50
2022-08-29T03:23:44.854Z,53.50
2022-08-29T03:26:11.984Z,53.70
2022-08-29T03:28:38.936Z,53.60
2022-08-29T03:31:06.429Z,53.70
2022-08-29T03:33:33.512Z,54.10
2022-08-29T03:36:00.332Z,53.90
2022-08-29T03:38:27.237Z,53.90
2022-08-29T03:40:55.672Z,53.90
2022-08-29T03:43:25.104Z,54.20
2022-08-29T03:45:56.017Z,54.40
2022-08-29T03:48:22.987Z,54.60
2022-08-29T03:50:53.222Z,54.70
2022-08-29T03:53:23.091Z,54.50
2022-08-29T03:55:49.974Z,54.60
2022-08-29T03:58:17.026Z,54.40
2022-08-29T04:00:46.789Z,54.60
2022-08-29T04:03:13.742Z,54.40
2022-08-29T04:05:40.932Z,54.40
2022-08-29T04:08:08.548Z,54.20
2022-08-29T04:10:38.194Z,54.20
2022-08-29T04:13:07.089Z,54.50
2022-08-29T04:15:35.383Z,54.50
2022-08-29T04:18:04.592Z,54.50
2022-08-29T04:20:37.957Z,54.30
2022-08-29T04:23:07.553Z,54.30
2022-08-29T04:25:37.745Z,54.20
2022-08-29T04:28:10.953Z,54.50
2022-08-29T04:30:39.517Z,54.60
2022-08-29T04:33:06.660Z,54.70
2022-08-29T04:35:34.946Z,54.60
2022-08-29T04:38:01.725Z,54.60
2022-08-29T04:40:28.591Z,54.50
2022-08-29T04:42:55.477Z,54.80
2022-08-29T04:45:23.150Z,54.90
2022-08-29T04:47:50.693Z,54.90
2022-08-29T04:50:21.989Z,54.70
2022-08-29T04:52:50.162Z,54.80
2022-08-29T04:55:21.539Z,54.80
2022-08-29T04:57:51.777Z,54.90
2022-08-29T05:00:24.088Z,55.00
2022-08-29T05:02:51.252Z,55.10
2022-08-29T05:05:18.670Z,55.30
2022-08-29T05:07:46.529Z,55.50
2022-08-29T05:10:19.747Z,55.50
2022-08-29T05:12:48.272Z,55.60
2022-08-29T05:15:16.440Z,56.20
2022-08-29T05:17:43.698Z,55.60
2022-08-29T05:20:13.443Z,55.70
2022-08-29T05:22:42.244Z,55.40
2022-08-29T05:25:14.415Z,55.60
2022-08-29T05:27:45.103Z,55.70
2022-08-29T05:30:12.046Z,55.60
2022-08-29T05:32:39.200Z,55.70
2022-08-29T05:35:06.640Z,55.60
2022-08-29T05:37:33.788Z,55.60
2022-08-29T05:40:00.717Z,55.80
2022-08-29T05:42:28.232Z,55.70
2022-08-29T05:44:55.186Z,55.60
2022-08-29T05:47:22.638Z,55.60
2022-08-29T06:28:57.633Z,56.50
2022-08-29T06:31:29.143Z,56.60
2022-08-29T06:33:59.207Z,56.80
2022-08-29T06:36:28.066Z,56.50
2022-08-29T06:39:00.091Z,56.70
2022-08-29T06:41:28.236Z,56.40
2022-08-29T06:43:57.723Z,56.40
2022-08-29T06:46:37.442Z,56.50
2022-08-29T06:49:08.529Z,57.10
2022-08-29T06:51:37.713Z,56.70
2022-08-29T06:54:07.336Z,56.70
2022-08-29T06:56:36.708Z,56.90
2022-08-29T06:59:04.906Z,57.40
2022-08-29T07:01:31.842Z,57.40
2022-08-29T07:04:00.715Z,57.20
2022-08-29T07:06:27.975Z,57.50
2022-08-29T07:08:55.494Z,56.90
2022-08-29T07:11:23.503Z,56.70
2022-08-29T07:13:50.377Z,56.40
2022-08-29T07:16:18.815Z,56.90
2022-08-29T07:18:48.926Z,56.90
2022-08-29T07:21:20.964Z,56.70
2022-08-29T07:23:49.693Z,56.40
2022-08-29T07:26:32.555Z,57.10
2022-08-29T07:29:04.768Z,56.90
2022-08-29T07:31:32.287Z,56.70
2022-08-29T07:34:02.093Z,56.50
2022-08-29T07:36:31.168Z,56.40
2022-08-29T07:38:58.302Z,56.20
2022-08-29T07:41:25.709Z,56.60
2022-08-29T07:43:53.450Z,56.30
2022-08-29T07:46:21.726Z,56.30
2022-08-29T07:48:49.187Z,55.90
2022-08-29T07:51:19.048Z,56.10
2022-08-29T07:53:49.725Z,55.90
2022-08-29T07:56:39.551Z,56.50
2022-08-29T07:59:07.187Z,55.90
2022-08-29T08:01:35.446Z,55.60
2022-08-29T08:04:02.917Z,56.30
2022-08-29T08:06:32.006Z,55.80
2022-08-29T08:09:01.743Z,55.70
2022-08-29T08:11:28.928Z,55.70
2022-08-29T08:13:57.598Z,55.90
2022-08-29T08:16:27.048Z,55.70
2022-08-29T08:33:14.865Z,55.40
2022-08-29T08:35:42.213Z,55.80
2022-08-29T08:38:10.200Z,55.80
2022-08-29T08:40:50.117Z,55.30
2022-08-29T08:43:26.987Z,55.40
2022-08-29T08:45:57.011Z,55.20
2022-08-29T08:48:34.025Z,55.10
2022-08-29T08:51:15.346Z,54.90
2022-08-29T08:53:46.791Z,53.70
2022-08-29T08:56:26.376Z,53.90
2022-08-29T08:59:20.337Z,53.70
2022-08-29T09:02:13.770Z,53.50
2022-08-29T09:04:58.377Z,53.80
2022-08-29T09:07:54.696Z,53.70
2022-08-29T09:10:50.616Z,53.50
2022-08-29T09:13:23.723Z,53.20
2022-08-29T09:15:58.866Z,53.00
2022-08-29T09:18:43.759Z,53.10
2022-08-29T09:21:41.748Z,53.30
2022-08-29T09:24:18.399Z,53.00
2022-08-29T09:26:45.271Z,52.90
2022-08-29T09:29:14.021Z,52.80
2022-08-29T09:31:41.224Z,52.90
2022-08-29T09:34:13.172Z,52.80
2022-08-29T09:36:55.962Z,52.40
2022-08-29T09:39:29.164Z,52.60
2022-08-29T09:42:19.284Z,52.90
2022-08-29T09:44:58.254Z,53.00
2022-08-29T09:47:30.994Z,53.20
2022-08-29T09:50:14.802Z,53.60
2022-08-29T09:52:55.639Z,53.90
2022-08-29T09:55:35.055Z,53.40
2022-08-29T09:58:30.490Z,53.40
2022-08-29T10:01:09.812Z,53.20
2022-08-29T10:03:44.204Z,53.10
2022-08-29T10:06:19.907Z,52.90
2022-08-29T10:09:08.375Z,53.20
2022-08-29T10:11:35.166Z,52.40
2022-08-29T10:14:14.586Z,52.50
2022-08-29T10:17:35.389Z,52.40
2022-08-29T10:20:05.724Z,52.30
2022-08-29T10:22:37.653Z,52.20
2022-08-29T10:25:13.596Z,52.30
2022-08-29T10:28:07.143Z,52.40
2022-08-29T10:31:01.577Z,52.10
2022-08-29T10:33:34.869Z,52.10
2022-08-29T10:36:12.255Z,52.30
2022-08-29T10:38:55.339Z,52.20
2022-08-29T10:41:27.993Z,52.10
2022-08-29T10:44:33.550Z,51.50
2022-08-29T10:47:13.277Z,52.50
2022-08-29T10:50:04.844Z,52.40
2022-08-29T10:52:51.438Z,52.00
2022-08-29T10:55:33.958Z,51.00
2022-08-29T10:58:07.380Z,51.50
2022-08-29T11:00:48.671Z,51.90
2022-08-29T11:03:26.711Z,52.00
2022-08-29T11:06:13.100Z,52.70
2022-08-29T11:09:06.046Z,52.00
2022-08-29T11:11:36.435Z,52.30
2022-08-29T11:14:08.774Z,52.20
2022-08-29T11:16:48.542Z,52.30
2022-08-29T11:19:27.285Z,52.20
2022-08-29T11:22:34.570Z,52.70
2022-08-29T11:25:10.531Z,52.30
2022-08-29T11:27:57.490Z,52.30
2022-08-29T11:30:40.296Z,52.40
2022-08-29T11:33:45.554Z,52.20
2022-08-29T11:36:45.193Z,52.30
2022-08-29T11:39:21.240Z,52.40
2022-08-29T11:41:56.417Z,52.40
2022-08-29T11:44:37.445Z,52.30
2022-08-29T11:48:03.089Z,52.20
2022-08-29T11:50:39.055Z,52.30
2022-08-29T11:53:37.643Z,52.10
2022-08-29T11:56:14.393Z,52.20
2022-08-29T11:58:56.171Z,51.90
2022-08-29T12:01:25.783Z,51.90
2022-08-29T12:03:55.307Z,51.80
2022-08-29T12:07:02.893Z,52.00
2022-08-29T12:09:45.548Z,51.60
2022-08-29T12:12:47.446Z,51.70
2022-08-29T12:15:51.505Z,50.70
2022-08-29T12:18:18.333Z,50.90
2022-08-29T12:20:58.656Z,51.30
2022-08-29T12:23:28.826Z,50.30
2022-08-29T12:26:22.852Z,50.70
2022-08-29T12:29:02.348Z,51.40
2022-08-29T12:32:08.507Z,51.40
2022-08-29T12:34:49.111Z,51.50
2022-08-29T12:37:25.527Z,51.70
2022-08-29T12:40:13.764Z,51.50
2022-08-29T12:43:06.506Z,51.00
2022-08-29T12:45:37.722Z,50.40
2022-08-29T12:48:22.538Z,50.60
2022-08-29T12:50:50.547Z,50.30
2022-08-29T12:53:23.337Z,50.40
2022-08-29T12:55:56.413Z,50.60
2022-08-29T12:58:42.536Z,50.80
2022-08-29T13:01:49.959Z,51.50
2022-08-29T13:04:36.983Z,51.60
2022-08-29T13:07:15.819Z,52.00
2022-08-29T13:09:48.986Z,51.90
2022-08-29T13:12:26.616Z,51.00
2022-08-29T13:14:58.341Z,49.00
2022-08-29T13:17:31.017Z,50.00
2022-08-29T13:20:43.439Z,49.90
2022-08-29T13:23:16.432Z,48.90
2022-08-29T13:26:00.033Z,48.10
2022-08-29T13:28:38.912Z,48.50
2022-08-29T13:31:34.128Z,48.70
2022-08-29T13:34:11.843Z,48.60
2022-08-29T13:37:01.011Z,48.70
2022-08-29T13:39:41.361Z,48.10
2022-08-29T13:42:26.378Z,48.10
2022-08-29T13:45:01.084Z,47.80
2022-08-29T13:47:39.019Z,48.00
2022-08-29T13:50:09.970Z,48.70
2022-08-29T13:52:39.194Z,48.20
2022-08-29T13:55:08.114Z,47.80
2022-08-29T13:57:35.905Z,48.00
2022-08-29T14:00:05.472Z,47.20
2022-08-29T14:02:34.624Z,47.20
2022-08-29T14:05:01.652Z,47.30
2022-08-29T14:07:31.418Z,47.60
2022-08-29T14:10:01.224Z,47.60
2022-08-29T14:12:33.320Z,47.80
2022-08-29T14:15:09.735Z,47.60
2022-08-29T14:17:42.459Z,48.00
2022-08-29T14:20:12.437Z,48.00
2022-08-29T14:22:45.703Z,48.20
2022-08-29T14:25:16.742Z,48.40
2022-08-29T14:27:44.458Z,48.40
2022-08-29T14:30:13.464Z,47.70
2022-08-29T14:32:41.516Z,47.50
2022-08-29T14:35:26.384Z,47.70
2022-08-29T14:37:58.721Z,47.80
2022-08-29T14:40:29.092Z,47.50
2022-08-29T14:42:58.391Z,46.90
2022-08-29T14:45:26.336Z,47.30
2022-08-29T14:47:53.491Z,47.60
2022-08-29T14:50:22.939Z,48.00
2022-08-29T14:52:54.890Z,48.70
2022-08-29T14:55:22.564Z,48.20
2022-08-29T14:57:52.159Z,49.20
2022-08-29T15:00:26.996Z,48.70
2022-08-29T15:02:54.471Z,47.60
2022-08-29T15:05:24.016Z,46.80
2022-08-29T15:07:50.964Z,47.40
2022-08-29T15:10:25.272Z,46.00
2022-08-29T15:12:54.085Z,46.20
2022-08-29T15:15:29.046Z,47.60
2022-08-29T15:17:58.272Z,48.10
2022-08-29T15:20:46.165Z,48.20
2022-08-29T15:23:13.174Z,48.20
2022-08-29T15:25:45.007Z,47.20
2022-08-29T15:28:18.750Z,47.00
2022-08-29T15:30:47.467Z,46.70
2022-08-29T15:33:15.053Z,47.10
2022-08-29T15:35:42.182Z,47.00
2022-08-29T15:38:09.340Z,47.30
2022-08-29T15:40:39.249Z,47.00
2022-08-29T15:43:10.250Z,47.80
2022-08-29T15:45:39.472Z,48.70
2022-08-29T15:48:11.884Z,48.20
2022-08-29T15:50:42.315Z,47.70
2022-08-29T15:53:09.293Z,46.80
2022-08-29T15:55:37.593Z,47.60
2022-08-29T15:58:05.914Z,46.50
2022-08-29T16:00:33.444Z,46.60
2022-08-29T16:03:03.602Z,45.60
2022-08-29T16:05:34.100Z,46.50
2022-08-29T16:08:02.247Z,47.40
2022-08-29T16:10:32.843Z,46.50
2022-08-29T16:13:00.104Z,46.70
2022-08-29T16:15:34.373Z,47.10
2022-08-29T16:18:02.320Z,46.40
2022-08-29T16:20:29.541Z,45.70
2022-08-29T16:22:56.898Z,46.20
2022-08-29T16:25:27.420Z,45.80
2022-08-29T16:27:57.501Z,46.60
2022-08-29T16:30:25.337Z,46.50
2022-08-29T16:32:53.700Z,46.70
2022-08-29T16:35:22.772Z,46.80
2022-08-29T16:37:53.260Z,46.60
2022-08-29T16:40:31.606Z,46.70
2022-08-29T16:43:00.690Z,46.80
2022-08-29T16:45:31.211Z,46.90
2022-08-29T16:47:58.216Z,45.40
2022-08-29T16:50:26.398Z,45.40
2022-08-29T16:52:55.075Z,46.30
2022-08-29T16:55:22.611Z,44.80
2022-08-29T16:58:11.197Z,45.40
2022-08-29T17:00:39.684Z,46.10
2022-08-29T17:03:06.603Z,46.20
2022-08-29T17:05:36.213Z,46.00
2022-08-29T17:08:03.586Z,45.80
2022-08-29T17:10:30.487Z,46.10
2022-08-29T17:12:58.276Z,46.10
2022-08-29T17:15:25.203Z,46.10
2022-08-29T17:17:52.728Z,46.00
2022-08-29T17:20:20.655Z,46.20
2022-08-29T17:22:47.497Z,46.00
2022-08-29T17:25:14.540Z,44.60
2022-08-29T17:27:55.614Z,45.30
2022-08-29T17:30:31.110Z,44.70
2022-08-29T17:32:59.021Z,44.10
2022-08-29T17:35:25.972Z,44.80
2022-08-29T17:37:55.061Z,44.00
2022-08-29T17:40:22.482Z,45.10
2022-08-29T17:42:56.962Z,45.20
2022-08-29T17:45:31.875Z,45.60
2022-08-29T17:48:00.130Z,44.80
2022-08-29T17:50:27.293Z,45.20
2022-08-29T17:52:54.405Z,45.40
2022-08-29T17:55:23.734Z,44.80
2022-08-29T17:58:01.113Z,44.80
2022-08-29T18:00:29.555Z,45.20
2022-08-29T18:02:57.863Z,44.70
2022-08-29T18:05:26.716Z,44.30
2022-08-29T18:07:56.300Z,45.00
2022-08-29T18:10:27.514Z,45.20
2022-08-29T18:12:54.600Z,45.40
2022-08-29T18:15:23.681Z,45.10
2022-08-29T18:17:51.396Z,45.10
2022-08-29T18:20:20.024Z,44.90
2022-08-29T18:22:48.531Z,44.90
2022-08-29T18:25:22.618Z,45.30
2022-08-29T18:27:50.481Z,45.90
2022-08-29T18:30:20.681Z,45.70
2022-08-29T18:32:49.959Z,46.00
2022-08-29T18:35:19.681Z,45.80
2022-08-29T18:37:46.671Z,45.80
2022-08-29T18:40:13.764Z,45.80
2022-08-29T18:42:42.887Z,45.60
2022-08-29T18:45:11.088Z,46.20
2022-08-29T18:47:39.898Z,45.80
2022-08-29T18:50:28.048Z,45.60
2022-08-29T18:52:55.748Z,45.60
2022-08-29T18:55:23.953Z,45.80
2022-08-29T18:57:57.862Z,45.50
2022-08-29T19:00:25.252Z,45.10
2022-08-29T19:02:56.974Z,45.10
2022-08-29T19:05:26.744Z,45.10
2022-08-29T19:07:54.487Z,45.50
2022-08-29T19:10:26.267Z,45.40
2022-08-29T19:12:54.598Z,44.80
2022-08-29T19:15:25.985Z,45.20
2022-08-29T19:17:56.583Z,45.50
2022-08-29T19:20:46.561Z,45.00
2022-08-29T19:23:16.282Z,45.40
2022-08-29T19:25:46.248Z,45.30
2022-08-29T19:28:19.771Z,45.00
2022-08-29T19:30:49.525Z,45.20
2022-08-29T19:33:18.402Z,45.00
2022-08-29T19:35:49.595Z,45.10
2022-08-29T19:38:18.041Z,45.00
2022-08-29T19:40:49.070Z,44.80
2022-08-29T19:43:17.705Z,44.80
2022-08-29T19:45:46.350Z,45.40
2022-08-29T19:48:15.019Z,45.30
2022-08-29T19:51:00.367Z,44.70
2022-08-29T19:53:30.814Z,44.50
2022-08-29T19:55:58.957Z,44.80
2022-08-29T19:58:31.939Z,44.70
2022-08-29T20:01:04.088Z,44.80
2022-08-29T20:03:32.290Z,45.00
2022-08-29T20:06:05.710Z,45.00
2022-08-29T20:08:36.253Z,45.40
2022-08-29T20:11:04.479Z,45.30
2022-08-29T20:13:35.727Z,45.30
2022-08-29T20:16:09.602Z,46.00
2022-08-29T20:18:43.583Z,45.80
2022-08-29T20:21:12.506Z,46.10
2022-08-29T20:23:49.943Z,46.20
2022-08-29T20:26:21.237Z,46.50
2022-08-29T20:28:53.676Z,46.20
2022-08-29T20:31:22.213Z,46.80
2022-08-29T20:33:49.735Z,47.60
2022-08-29T20:36:38.754Z,46.90
2022-08-29T20:39:11.143Z,47.60
2022-08-29T20:41:38.869Z,47.90
2022-08-29T20:44:11.156Z,47.90
2022-08-29T20:46:44.228Z,47.90
2022-08-29T20:49:15.570Z,47.60
2022-08-29T20:51:46.190Z,47.00
2022-08-29T20:54:15.375Z,47.20
2022-08-29T20:56:42.526Z,46.90
2022-08-29T20:59:10.557Z,46.70
2022-08-29T21:01:40.514Z,47.00
2022-08-29T21:04:28.071Z,46.90
2022-08-29T21:07:00.189Z,46.40
2022-08-29T21:09:29.035Z,46.50
2022-08-29T21:11:58.932Z,46.70
2022-08-29T21:14:29.377Z,46.80
2022-08-29T21:16:57.337Z,47.10
2022-08-29T21:19:27.299Z,46.50
2022-08-29T21:21:54.875Z,46.90
2022-08-29T21:24:22.675Z,46.90
2022-08-29T21:26:50.226Z,47.00
2022-08-29T21:29:20.148Z,47.00
2022-08-29T21:31:49.513Z,47.00
2022-08-29T21:34:19.763Z,47.10
2022-08-29T21:36:49.492Z,47.10
2022-08-29T21:39:28.779Z,47.10
2022-08-29T21:41:56.711Z,47.10
2022-08-29T21:44:23.814Z,47.20
2022-08-29T21:46:52.754Z,47.20
2022-08-29T21:49:21.557Z,47.40
2022-08-29T21:51:51.008Z,47.50
2022-08-29T21:54:18.243Z,47.50
2022-08-29T21:56:46.923Z,48.40
2022-08-29T21:59:15.285Z,47.80
2022-08-29T22:01:46.053Z,47.80
2022-08-29T22:04:18.877Z,48.20
2022-08-29T22:06:54.584Z,48.20
2022-08-29T22:09:23.313Z,48.00
2022-08-29T22:11:52.883Z,48.00
2022-08-29T22:14:21.763Z,47.80
2022-08-29T22:16:48.591Z,48.00
2022-08-29T22:19:19.079Z,48.00
2022-08-29T22:21:52.422Z,47.90
2022-08-29T22:24:19.376Z,48.00
2022-08-29T22:26:51.219Z,48.20
2022-08-29T22:29:18.083Z,48.40
2022-08-29T22:31:47.556Z,48.40
2022-08-29T22:34:16.297Z,48.40
2022-08-29T22:36:45.903Z,48.50
2022-08-29T22:39:13.392Z,48.50
2022-08-29T22:41:45.455Z,48.50
2022-08-29T22:44:59.898Z,48.80
2022-08-29T22:47:03.322Z,49.10
2022-08-29T22:49:34.611Z,49.10
2022-08-29T22:52:02.210Z,49.10
2022-08-29T22:54:36.130Z,49.20
2022-08-29T22:57:14.755Z,49.40
2022-08-29T22:59:43.463Z,49.40
2022-08-29T23:02:13.800Z,49.40
2022-08-29T23:04:43.722Z,49.60
2022-08-29T23:07:12.126Z,49.60
2022-08-29T23:09:40.690Z,49.80
2022-08-29T23:12:08.658Z,50.00
2022-08-29T23:14:36.250Z,50.20
2022-08-29T23:17:04.947Z,50.20
2022-08-29T23:19:32.238Z,50.20
2022-08-29T23:21:59.385Z,50.30
2022-08-29T23:24:31.685Z,50.40
2022-08-29T23:26:59.568Z,50.60
2022-08-29T23:29:27.161Z,50.70
2022-08-29T23:31:56.725Z,50.70
2022-08-29T23:34:25.923Z,50.60
2022-08-29T23:36:52.715Z,50.70
2022-08-29T23:39:19.612Z,50.70
2022-08-29T23:41:51.085Z,50.60
2022-08-29T23:44:18.023Z,50.70
2022-08-29T23:46:46.205Z,50.90
2022-08-29T23:49:13.247Z,50.90
2022-08-29T23:51:41.143Z,51.10
2022-08-29T23:54:13.129Z,51.20
2022-08-29T23:56:40.483Z,51.50
2022-08-29T23:59:30.755Z,51.30
